sensor_id;sensor_type;location;lat;lon;timestamp;P1;durP1;ratioP1;P2;durP2;ratioP2
66127;SDS011;52925;52.436;-1.952;2024-02-16T05:22:48;7.43;;;2.80;;
66127;SDS011;52925;52.436;-1.952;2024-02-16T05:24:09;3.23;;;2.33;;
66127;SDS011;52925;52.436;-1.952;2024-02-16T05:25:29;3.87;;;2.37;;
66127;SDS011;52925;52.436;-1.952;2024-02-16T05:26:50;3.50;;;2.70;;
66127;SDS011;52925;52.436;-1.952;2024-02-16T05:28:11;5.70;;;2.77;;
66127;SDS011;52925;52.436;-1.952;2024-02-16T05:29:33;4.93;;;2.60;;
66127;SDS011;52925;52.436;-1.952;2024-02-16T05:30:53;4.97;;;3.07;;
66127;SDS011;52925;52.436;-1.952;2024-02-16T05:32:14;3.67;;;2.47;;
66127;SDS011;52925;52.436;-1.952;2024-02-16T05:33:34;5.30;;;2.63;;
66127;SDS011;52925;52.436;-1.952;2024-02-16T05:34:54;5.70;;;2.70;;
66127;SDS011;52925;52.436;-1.952;2024-02-16T05:36:16;4.57;;;2.50;;
66127;SDS011;52925;52.436;-1.952;2024-02-16T05:37:39;4.80;;;3.23;;
66127;SDS011;52925;52.436;-1.952;2024-02-16T05:39:04;4.50;;;2.90;;
66127;SDS011;52925;52.436;-1.952;2024-02-16T05:40:38;6.43;;;2.90;;
66127;SDS011;52925;52.436;-1.952;2024-02-16T05:42:11;4.33;;;2.90;;
66127;SDS011;52925;52.436;-1.952;2024-02-16T05:43:32;4.33;;;2.73;;
66127;SDS011;52925;52.436;-1.952;2024-02-16T05:44:52;4.23;;;2.67;;
66127;SDS011;52925;52.436;-1.952;2024-02-16T05:46:13;6.60;;;2.83;;
66127;SDS011;52925;52.436;-1.952;2024-02-16T05:47:33;4.40;;;2.93;;
66127;SDS011;52925;52.436;-1.952;2024-02-16T05:48:54;5.43;;;2.67;;
66127;SDS011;52925;52.436;-1.952;2024-02-16T05:50:14;4.97;;;3.17;;
66127;SDS011;52925;52.436;-1.952;2024-02-16T05:51:35;4.50;;;2.60;;
66127;SDS011;52925;52.436;-1.952;2024-02-16T05:52:56;6.43;;;3.30;;
66127;SDS011;52925;52.436;-1.952;2024-02-16T05:54:18;4.00;;;2.90;;
66127;SDS011;52925;52.436;-1.952;2024-02-16T05:55:38;7.00;;;3.10;;
66127;SDS011;52925;52.436;-1.952;2024-02-16T05:56:59;4.80;;;2.63;;
66127;SDS011;52925;52.436;-1.952;2024-02-16T05:58:18;5.00;;;2.97;;
66127;SDS011;52925;52.436;-1.952;2024-02-16T05:59:39;4.80;;;3.10;;
66127;SDS011;52925;52.436;-1.952;2024-02-16T06:01:00;6.13;;;2.90;;
66127;SDS011;52925;52.436;-1.952;2024-02-16T06:02:21;6.47;;;2.80;;
66127;SDS011;52925;52.436;-1.952;2024-02-16T06:03:44;7.07;;;3.40;;
66127;SDS011;52925;52.436;-1.952;2024-02-16T06:05:05;5.90;;;3.03;;
66127;SDS011;52925;52.436;-1.952;2024-02-16T06:06:26;7.13;;;3.27;;
66127;SDS011;52925;52.436;-1.952;2024-02-16T06:07:46;5.30;;;3.20;;
66127;SDS011;52925;52.436;-1.952;2024-02-16T06:09:06;5.17;;;3.00;;
66127;SDS011;52925;52.436;-1.952;2024-02-16T06:10:29;4.97;;;2.60;;
66127;SDS011;52925;52.436;-1.952;2024-02-16T06:11:50;4.43;;;2.80;;
66127;SDS011;52925;52.436;-1.952;2024-02-16T06:13:10;5.67;;;2.93;;
66127;SDS011;52925;52.436;-1.952;2024-02-16T06:14:31;5.37;;;2.70;;
66127;SDS011;52925;52.436;-1.952;2024-02-16T06:15:51;5.80;;;2.77;;
66127;SDS011;52925;52.436;-1.952;2024-02-16T06:17:12;6.40;;;3.20;;
66127;SDS011;52925;52.436;-1.952;2024-02-16T06:18:33;5.17;;;2.83;;
66127;SDS011;52925;52.436;-1.952;2024-02-16T06:19:55;4.00;;;2.80;;
66127;SDS011;52925;52.436;-1.952;2024-02-16T06:21:15;4.53;;;2.80;;
66127;SDS011;52925;52.436;-1.952;2024-02-16T06:22:36;6.37;;;3.03;;
66127;SDS011;52925;52.436;-1.952;2024-02-16T06:23:56;3.37;;;2.70;;
66127;SDS011;52925;52.436;-1.952;2024-02-16T06:25:17;5.23;;;2.60;;
66127;SDS011;52925;52.436;-1.952;2024-02-16T06:26:39;5.00;;;2.80;;
66127;SDS011;52925;52.436;-1.952;2024-02-16T06:28:00;5.40;;;2.53;;
66127;SDS011;52925;52.436;-1.952;2024-02-16T06:29:20;6.03;;;3.27;;
66127;SDS011;52925;52.436;-1.952;2024-02-16T06:30:41;5.13;;;2.60;;
66127;SDS011;52925;52.436;-1.952;2024-02-16T06:32:01;4.20;;;2.80;;
66127;SDS011;52925;52.436;-1.952;2024-02-16T06:33:22;7.40;;;2.83;;
66127;SDS011;52925;52.436;-1.952;2024-02-16T06:34:42;5.67;;;2.73;;
66127;SDS011;52925;52.436;-1.952;2024-02-16T06:36:04;5.67;;;2.60;;
66127;SDS011;52925;52.436;-1.952;2024-02-16T06:37:26;4.83;;;2.90;;
66127;SDS011;52925;52.436;-1.952;2024-02-16T06:38:47;4.23;;;2.53;;
66127;SDS011;52925;52.436;-1.952;2024-02-16T06:40:07;5.63;;;3.00;;
66127;SDS011;52925;52.436;-1.952;2024-02-16T06:41:29;7.00;;;2.90;;
66127;SDS011;52925;52.436;-1.952;2024-02-16T06:42:50;5.93;;;2.80;;
66127;SDS011;52925;52.436;-1.952;2024-02-16T06:44:11;6.97;;;2.87;;
66127;SDS011;52925;52.436;-1.952;2024-02-16T06:45:31;4.50;;;2.70;;
66127;SDS011;52925;52.436;-1.952;2024-02-16T06:46:52;4.70;;;2.57;;
66127;SDS011;52925;52.436;-1.952;2024-02-16T06:48:12;5.33;;;2.77;;
66127;SDS011;52925;52.436;-1.952;2024-02-16T06:49:33;6.33;;;3.10;;
66127;SDS011;52925;52.436;-1.952;2024-02-16T06:50:53;4.07;;;2.40;;
66127;SDS011;52925;52.436;-1.952;2024-02-16T06:52:14;4.97;;;2.87;;
66127;SDS011;52925;52.436;-1.952;2024-02-16T06:53:34;4.63;;;2.57;;
66127;SDS011;52925;52.436;-1.952;2024-02-16T06:54:56;7.30;;;2.67;;
66127;SDS011;52925;52.436;-1.952;2024-02-16T06:56:15;6.27;;;2.70;;
66127;SDS011;52925;52.436;-1.952;2024-02-16T06:57:37;4.93;;;2.63;;
66127;SDS011;52925;52.436;-1.952;2024-02-16T06:58:58;4.47;;;2.50;;
66127;SDS011;52925;52.436;-1.952;2024-02-16T07:00:19;6.40;;;2.57;;
66127;SDS011;52925;52.436;-1.952;2024-02-16T07:01:39;5.20;;;2.60;;
66127;SDS011;52925;52.436;-1.952;2024-02-16T07:03:00;4.50;;;2.80;;
66127;SDS011;52925;52.436;-1.952;2024-02-16T07:04:20;5.47;;;2.57;;
66127;SDS011;52925;52.436;-1.952;2024-02-16T07:05:41;4.40;;;2.40;;
66127;SDS011;52925;52.436;-1.952;2024-02-16T07:07:00;3.67;;;2.40;;
66127;SDS011;52925;52.436;-1.952;2024-02-16T07:08:23;4.40;;;2.33;;
66127;SDS011;52925;52.436;-1.952;2024-02-16T07:09:42;5.37;;;2.30;;
66127;SDS011;52925;52.436;-1.952;2024-02-16T07:11:04;8.80;;;2.97;;
66127;SDS011;52925;52.436;-1.952;2024-02-16T07:12:24;5.37;;;2.50;;
66127;SDS011;52925;52.436;-1.952;2024-02-16T07:13:45;4.70;;;2.60;;
66127;SDS011;52925;52.436;-1.952;2024-02-16T07:15:07;5.27;;;2.70;;
66127;SDS011;52925;52.436;-1.952;2024-02-16T07:16:28;6.53;;;2.53;;
66127;SDS011;52925;52.436;-1.952;2024-02-16T17:09:11;2.03;;;0.20;;
66127;SDS011;52925;52.436;-1.952;2024-02-16T17:10:35;0.40;;;0.10;;
66127;SDS011;52925;52.436;-1.952;2024-02-16T17:11:54;0.63;;;0.30;;
66127;SDS011;52925;52.436;-1.952;2024-02-16T17:13:16;0.77;;;0.27;;
66127;SDS011;52925;52.436;-1.952;2024-02-16T17:14:38;0.83;;;0.30;;
66127;SDS011;52925;52.436;-1.952;2024-02-16T17:16:00;0.23;;;0.13;;
66127;SDS011;52925;52.436;-1.952;2024-02-16T17:17:20;3.70;;;0.50;;
66127;SDS011;52925;52.436;-1.952;2024-02-16T17:18:42;0.80;;;0.20;;
66127;SDS011;52925;52.436;-1.952;2024-02-16T17:20:02;0.60;;;0.20;;
66127;SDS011;52925;52.436;-1.952;2024-02-16T17:21:24;0.87;;;0.30;;
66127;SDS011;52925;52.436;-1.952;2024-02-16T17:22:44;1.40;;;0.30;;
66127;SDS011;52925;52.436;-1.952;2024-02-16T17:24:06;0.77;;;0.20;;
66127;SDS011;52925;52.436;-1.952;2024-02-16T17:25:29;2.13;;;0.47;;
66127;SDS011;52925;52.436;-1.952;2024-02-16T17:26:50;1.17;;;0.50;;
66127;SDS011;52925;52.436;-1.952;2024-02-16T17:28:10;2.50;;;0.30;;
66127;SDS011;52925;52.436;-1.952;2024-02-16T17:29:31;2.17;;;0.50;;
66127;SDS011;52925;52.436;-1.952;2024-02-16T17:30:51;1.17;;;0.30;;
66127;SDS011;52925;52.436;-1.952;2024-02-16T17:32:12;2.23;;;0.33;;
66127;SDS011;52925;52.436;-1.952;2024-02-16T17:33:32;1.10;;;0.30;;
66127;SDS011;52925;52.436;-1.952;2024-02-16T17:34:54;1.77;;;0.43;;
66127;SDS011;52925;52.436;-1.952;2024-02-16T17:36:14;0.97;;;0.30;;
66127;SDS011;52925;52.436;-1.952;2024-02-16T17:37:37;2.37;;;0.37;;
66127;SDS011;52925;52.436;-1.952;2024-02-16T17:38:58;0.97;;;0.27;;
66127;SDS011;52925;52.436;-1.952;2024-02-16T17:40:20;0.90;;;0.30;;
66127;SDS011;52925;52.436;-1.952;2024-02-16T17:41:42;1.07;;;0.27;;
66127;SDS011;52925;52.436;-1.952;2024-02-16T17:43:03;1.13;;;0.30;;
66127;SDS011;52925;52.436;-1.952;2024-02-16T17:44:23;1.33;;;0.40;;
66127;SDS011;52925;52.436;-1.952;2024-02-16T17:45:44;1.50;;;0.40;;
66127;SDS011;52925;52.436;-1.952;2024-02-16T17:47:05;1.77;;;0.30;;
66127;SDS011;52925;52.436;-1.952;2024-02-16T17:48:26;0.90;;;0.30;;
66127;SDS011;52925;52.436;-1.952;2024-02-16T17:49:49;1.50;;;0.47;;
66127;SDS011;52925;52.436;-1.952;2024-02-16T17:51:10;1.60;;;0.40;;
66127;SDS011;52925;52.436;-1.952;2024-02-16T17:52:30;2.80;;;0.30;;
66127;SDS011;52925;52.436;-1.952;2024-02-16T17:53:51;0.77;;;0.30;;
66127;SDS011;52925;52.436;-1.952;2024-02-16T17:55:13;1.43;;;0.40;;
66127;SDS011;52925;52.436;-1.952;2024-02-16T17:56:47;1.43;;;0.40;;
66127;SDS011;52925;52.436;-1.952;2024-02-16T17:58:07;1.20;;;0.50;;
66127;SDS011;52925;52.436;-1.952;2024-02-16T17:59:27;2.00;;;0.40;;
66127;SDS011;52925;52.436;-1.952;2024-02-16T18:00:47;0.53;;;0.30;;
66127;SDS011;52925;52.436;-1.952;2024-02-16T18:02:08;1.33;;;0.50;;
66127;SDS011;52925;52.436;-1.952;2024-02-16T18:03:29;2.33;;;0.70;;
66127;SDS011;52925;52.436;-1.952;2024-02-16T18:04:50;2.37;;;0.50;;
66127;SDS011;52925;52.436;-1.952;2024-02-16T18:06:10;2.13;;;0.50;;
66127;SDS011;52925;52.436;-1.952;2024-02-16T18:07:31;1.33;;;0.50;;
66127;SDS011;52925;52.436;-1.952;2024-02-16T18:08:51;1.87;;;0.50;;
66127;SDS011;52925;52.436;-1.952;2024-02-16T18:10:13;0.67;;;0.50;;
66127;SDS011;52925;52.436;-1.952;2024-02-16T18:11:35;2.70;;;0.90;;
66127;SDS011;52925;52.436;-1.952;2024-02-16T18:12:57;2.07;;;0.50;;
66127;SDS011;52925;52.436;-1.952;2024-02-16T18:14:18;1.93;;;0.57;;
66127;SDS011;52925;52.436;-1.952;2024-02-16T18:15:39;1.80;;;0.70;;
66127;SDS011;52925;52.436;-1.952;2024-02-16T18:16:59;1.90;;;0.73;;
66127;SDS011;52925;52.436;-1.952;2024-02-16T18:18:20;2.07;;;0.50;;
66127;SDS011;52925;52.436;-1.952;2024-02-16T18:19:41;1.13;;;0.53;;
66127;SDS011;52925;52.436;-1.952;2024-02-16T18:21:02;1.50;;;0.50;;
66127;SDS011;52925;52.436;-1.952;2024-02-16T18:22:22;1.63;;;0.90;;
66127;SDS011;52925;52.436;-1.952;2024-02-16T18:23:44;2.70;;;0.40;;
66127;SDS011;52925;52.436;-1.952;2024-02-16T18:25:07;2.07;;;0.50;;
66127;SDS011;52925;52.436;-1.952;2024-02-16T18:26:28;1.70;;;0.50;;
66127;SDS011;52925;52.436;-1.952;2024-02-16T18:27:50;1.67;;;0.50;;
66127;SDS011;52925;52.436;-1.952;2024-02-16T18:29:14;2.07;;;0.60;;
66127;SDS011;52925;52.436;-1.952;2024-02-16T18:30:35;2.73;;;0.60;;
66127;SDS011;52925;52.436;-1.952;2024-02-16T18:31:55;1.57;;;0.60;;
66127;SDS011;52925;52.436;-1.952;2024-02-16T18:33:18;3.30;;;1.13;;
66127;SDS011;52925;52.436;-1.952;2024-02-16T18:34:40;1.90;;;0.60;;
66127;SDS011;52925;52.436;-1.952;2024-02-16T18:36:02;1.70;;;0.57;;
66127;SDS011;52925;52.436;-1.952;2024-02-16T18:37:24;1.00;;;0.60;;
66127;SDS011;52925;52.436;-1.952;2024-02-16T18:38:45;1.07;;;0.50;;
66127;SDS011;52925;52.436;-1.952;2024-02-16T18:40:06;1.00;;;0.50;;
66127;SDS011;52925;52.436;-1.952;2024-02-16T18:41:28;2.00;;;0.40;;
66127;SDS011;52925;52.436;-1.952;2024-02-16T18:42:48;1.47;;;0.50;;
66127;SDS011;52925;52.436;-1.952;2024-02-16T18:44:13;1.77;;;0.60;;
66127;SDS011;52925;52.436;-1.952;2024-02-16T18:45:33;2.00;;;0.50;;
66127;SDS011;52925;52.436;-1.952;2024-02-16T18:46:55;2.30;;;0.60;;
66127;SDS011;52925;52.436;-1.952;2024-02-16T18:48:14;3.03;;;0.60;;
66127;SDS011;52925;52.436;-1.952;2024-02-16T18:49:38;0.83;;;0.33;;
66127;SDS011;52925;52.436;-1.952;2024-02-16T18:51:02;1.50;;;0.50;;
66127;SDS011;52925;52.436;-1.952;2024-02-16T18:52:24;2.33;;;0.60;;
66127;SDS011;52925;52.436;-1.952;2024-02-16T18:53:44;1.97;;;0.60;;
66127;SDS011;52925;52.436;-1.952;2024-02-16T18:55:06;1.23;;;0.50;;
66127;SDS011;52925;52.436;-1.952;2024-02-16T18:56:26;1.80;;;0.60;;
66127;SDS011;52925;52.436;-1.952;2024-02-16T18:57:48;3.77;;;0.63;;
66127;SDS011;52925;52.436;-1.952;2024-02-16T18:59:08;2.40;;;0.50;;
66127;SDS011;52925;52.436;-1.952;2024-02-16T19:00:30;0.80;;;0.43;;
66127;SDS011;52925;52.436;-1.952;2024-02-16T19:01:50;1.27;;;0.60;;
66127;SDS011;52925;52.436;-1.952;2024-02-16T19:03:13;2.30;;;0.60;;
66127;SDS011;52925;52.436;-1.952;2024-02-16T19:04:34;2.77;;;0.50;;
66127;SDS011;52925;52.436;-1.952;2024-02-16T19:05:56;1.13;;;0.53;;
66127;SDS011;52925;52.436;-1.952;2024-02-16T19:07:16;2.00;;;0.60;;
66127;SDS011;52925;52.436;-1.952;2024-02-16T19:08:37;2.27;;;0.63;;
66127;SDS011;52925;52.436;-1.952;2024-02-16T19:09:57;2.13;;;0.63;;
66127;SDS011;52925;52.436;-1.952;2024-02-16T19:11:19;2.40;;;0.60;;
66127;SDS011;52925;52.436;-1.952;2024-02-16T19:12:39;2.27;;;0.70;;
66127;SDS011;52925;52.436;-1.952;2024-02-16T19:14:00;1.73;;;0.57;;
66127;SDS011;52925;52.436;-1.952;2024-02-16T19:15:20;3.33;;;0.83;;
66127;SDS011;52925;52.436;-1.952;2024-02-16T19:16:42;2.03;;;0.70;;
66127;SDS011;52925;52.436;-1.952;2024-02-16T19:18:02;2.03;;;0.70;;
66127;SDS011;52925;52.436;-1.952;2024-02-16T19:19:26;1.83;;;0.70;;
66127;SDS011;52925;52.436;-1.952;2024-02-16T19:20:49;2.17;;;0.87;;
66127;SDS011;52925;52.436;-1.952;2024-02-16T19:22:12;2.53;;;0.87;;
66127;SDS011;52925;52.436;-1.952;2024-02-16T19:23:32;1.60;;;0.80;;
66127;SDS011;52925;52.436;-1.952;2024-02-16T19:24:53;1.30;;;0.67;;
66127;SDS011;52925;52.436;-1.952;2024-02-16T19:26:13;1.90;;;0.70;;
66127;SDS011;52925;52.436;-1.952;2024-02-16T19:27:33;3.30;;;0.90;;
66127;SDS011;52925;52.436;-1.952;2024-02-16T19:28:53;1.93;;;0.80;;
66127;SDS011;52925;52.436;-1.952;2024-02-16T19:30:14;3.03;;;1.20;;
66127;SDS011;52925;52.436;-1.952;2024-02-16T19:31:34;1.60;;;0.70;;
66127;SDS011;52925;52.436;-1.952;2024-02-16T19:32:56;3.03;;;1.07;;
66127;SDS011;52925;52.436;-1.952;2024-02-16T19:34:16;3.13;;;1.00;;
66127;SDS011;52925;52.436;-1.952;2024-02-16T19:35:37;3.80;;;0.80;;
66127;SDS011;52925;52.436;-1.952;2024-02-16T19:36:57;2.37;;;0.83;;
66127;SDS011;52925;52.436;-1.952;2024-02-16T19:38:17;1.70;;;0.80;;
66127;SDS011;52925;52.436;-1.952;2024-02-16T19:39:37;2.77;;;1.17;;
66127;SDS011;52925;52.436;-1.952;2024-02-16T19:40:58;1.63;;;0.97;;
66127;SDS011;52925;52.436;-1.952;2024-02-16T19:42:18;2.57;;;0.90;;
66127;SDS011;52925;52.436;-1.952;2024-02-16T19:43:39;1.73;;;0.90;;
66127;SDS011;52925;52.436;-1.952;2024-02-16T19:44:59;3.37;;;0.83;;
66127;SDS011;52925;52.436;-1.952;2024-02-16T19:46:20;2.00;;;0.80;;
66127;SDS011;52925;52.436;-1.952;2024-02-16T19:47:40;2.77;;;0.80;;
66127;SDS011;52925;52.436;-1.952;2024-02-16T19:49:04;2.37;;;0.77;;
66127;SDS011;52925;52.436;-1.952;2024-02-16T19:50:23;2.40;;;0.90;;
66127;SDS011;52925;52.436;-1.952;2024-02-16T19:51:45;2.33;;;0.87;;
66127;SDS011;52925;52.436;-1.952;2024-02-16T19:53:04;3.00;;;0.90;;
66127;SDS011;52925;52.436;-1.952;2024-02-16T19:54:26;1.53;;;0.90;;
66127;SDS011;52925;52.436;-1.952;2024-02-16T19:55:46;1.47;;;0.80;;
66127;SDS011;52925;52.436;-1.952;2024-02-16T19:57:07;2.37;;;0.77;;
66127;SDS011;52925;52.436;-1.952;2024-02-16T19:58:27;2.57;;;0.80;;
66127;SDS011;52925;52.436;-1.952;2024-02-16T19:59:48;4.57;;;1.00;;
66127;SDS011;52925;52.436;-1.952;2024-02-16T20:01:08;3.27;;;0.80;;
66127;SDS011;52925;52.436;-1.952;2024-02-16T20:02:29;2.20;;;0.70;;
66127;SDS011;52925;52.436;-1.952;2024-02-16T20:03:49;2.50;;;0.70;;
66127;SDS011;52925;52.436;-1.952;2024-02-16T20:05:11;3.83;;;0.93;;
66127;SDS011;52925;52.436;-1.952;2024-02-16T20:06:33;1.80;;;0.60;;
66127;SDS011;52925;52.436;-1.952;2024-02-16T20:07:54;4.00;;;0.80;;
66127;SDS011;52925;52.436;-1.952;2024-02-16T20:09:14;1.80;;;0.60;;
66127;SDS011;52925;52.436;-1.952;2024-02-16T20:10:35;1.80;;;0.60;;
66127;SDS011;52925;52.436;-1.952;2024-02-16T20:11:55;3.87;;;1.07;;
66127;SDS011;52925;52.436;-1.952;2024-02-16T20:13:17;2.40;;;0.87;;
66127;SDS011;52925;52.436;-1.952;2024-02-16T20:14:37;4.60;;;0.90;;
66127;SDS011;52925;52.436;-1.952;2024-02-16T20:15:57;2.57;;;0.80;;
66127;SDS011;52925;52.436;-1.952;2024-02-16T20:17:17;2.10;;;0.70;;
66127;SDS011;52925;52.436;-1.952;2024-02-16T20:18:38;2.90;;;0.80;;
66127;SDS011;52925;52.436;-1.952;2024-02-16T20:19:58;1.60;;;0.70;;
66127;SDS011;52925;52.436;-1.952;2024-02-16T20:21:25;2.83;;;0.60;;
66127;SDS011;52925;52.436;-1.952;2024-02-16T20:22:45;2.60;;;0.73;;
66127;SDS011;52925;52.436;-1.952;2024-02-16T20:24:06;4.43;;;1.17;;
66127;SDS011;52925;52.436;-1.952;2024-02-16T20:25:26;3.23;;;0.77;;
66127;SDS011;52925;52.436;-1.952;2024-02-16T20:26:47;2.97;;;1.00;;
66127;SDS011;52925;52.436;-1.952;2024-02-16T20:28:07;4.17;;;0.90;;
66127;SDS011;52925;52.436;-1.952;2024-02-16T20:29:28;2.50;;;0.70;;
66127;SDS011;52925;52.436;-1.952;2024-02-16T20:30:48;1.53;;;0.60;;
66127;SDS011;52925;52.436;-1.952;2024-02-16T20:32:09;3.43;;;0.80;;
66127;SDS011;52925;52.436;-1.952;2024-02-16T20:33:29;3.83;;;0.80;;
66127;SDS011;52925;52.436;-1.952;2024-02-16T20:34:50;1.80;;;0.60;;
66127;SDS011;52925;52.436;-1.952;2024-02-16T20:36:10;3.17;;;0.70;;
66127;SDS011;52925;52.436;-1.952;2024-02-16T20:37:33;1.60;;;0.63;;
66127;SDS011;52925;52.436;-1.952;2024-02-16T20:38:53;4.70;;;0.80;;
66127;SDS011;52925;52.436;-1.952;2024-02-16T20:40:14;2.40;;;0.80;;
66127;SDS011;52925;52.436;-1.952;2024-02-16T20:41:34;2.30;;;0.70;;
66127;SDS011;52925;52.436;-1.952;2024-02-16T20:42:55;2.20;;;0.70;;
66127;SDS011;52925;52.436;-1.952;2024-02-16T20:44:16;3.83;;;0.70;;
66127;SDS011;52925;52.436;-1.952;2024-02-16T20:45:37;5.40;;;0.67;;
66127;SDS011;52925;52.436;-1.952;2024-02-16T20:46:57;2.80;;;1.07;;
66127;SDS011;52925;52.436;-1.952;2024-02-16T20:48:18;2.63;;;0.67;;
66127;SDS011;52925;52.436;-1.952;2024-02-16T20:49:38;2.60;;;0.90;;
66127;SDS011;52925;52.436;-1.952;2024-02-16T20:50:58;3.53;;;0.93;;
66127;SDS011;52925;52.436;-1.952;2024-02-16T20:52:18;2.27;;;0.60;;
66127;SDS011;52925;52.436;-1.952;2024-02-16T20:53:41;3.00;;;0.87;;
66127;SDS011;52925;52.436;-1.952;2024-02-16T20:55:00;2.83;;;0.83;;
66127;SDS011;52925;52.436;-1.952;2024-02-16T20:56:21;3.20;;;0.80;;
66127;SDS011;52925;52.436;-1.952;2024-02-16T20:57:41;4.40;;;0.90;;
66127;SDS011;52925;52.436;-1.952;2024-02-16T20:59:02;3.03;;;0.83;;
66127;SDS011;52925;52.436;-1.952;2024-02-16T21:00:22;2.87;;;0.77;;
66127;SDS011;52925;52.436;-1.952;2024-02-16T21:01:43;3.23;;;0.87;;
66127;SDS011;52925;52.436;-1.952;2024-02-16T21:03:03;3.47;;;0.90;;
66127;SDS011;52925;52.436;-1.952;2024-02-16T21:04:30;3.90;;;0.70;;
66127;SDS011;52925;52.436;-1.952;2024-02-16T21:05:51;2.57;;;0.97;;
66127;SDS011;52925;52.436;-1.952;2024-02-16T21:07:12;3.90;;;0.90;;
66127;SDS011;52925;52.436;-1.952;2024-02-16T21:08:31;4.40;;;0.90;;
66127;SDS011;52925;52.436;-1.952;2024-02-16T21:09:54;3.00;;;1.00;;
66127;SDS011;52925;52.436;-1.952;2024-02-16T21:11:15;2.80;;;0.70;;
66127;SDS011;52925;52.436;-1.952;2024-02-16T21:12:36;3.47;;;0.67;;
66127;SDS011;52925;52.436;-1.952;2024-02-16T21:13:56;2.70;;;0.77;;
66127;SDS011;52925;52.436;-1.952;2024-02-16T21:15:16;3.27;;;0.90;;
66127;SDS011;52925;52.436;-1.952;2024-02-16T21:16:36;2.37;;;0.73;;
66127;SDS011;52925;52.436;-1.952;2024-02-16T21:17:57;3.20;;;0.90;;
66127;SDS011;52925;52.436;-1.952;2024-02-16T21:19:17;3.07;;;0.90;;
66127;SDS011;52925;52.436;-1.952;2024-02-16T21:20:39;2.57;;;0.90;;
66127;SDS011;52925;52.436;-1.952;2024-02-16T21:22:00;2.67;;;0.67;;
66127;SDS011;52925;52.436;-1.952;2024-02-16T21:23:21;3.10;;;0.80;;
66127;SDS011;52925;52.436;-1.952;2024-02-16T21:24:41;2.93;;;0.70;;
66127;SDS011;52925;52.436;-1.952;2024-02-16T21:26:03;2.97;;;0.77;;
66127;SDS011;52925;52.436;-1.952;2024-02-16T21:27:24;3.27;;;1.10;;
66127;SDS011;52925;52.436;-1.952;2024-02-16T21:28:45;3.73;;;1.00;;
66127;SDS011;52925;52.436;-1.952;2024-02-16T21:30:05;4.13;;;0.90;;
66127;SDS011;52925;52.436;-1.952;2024-02-16T21:31:26;3.07;;;0.67;;
66127;SDS011;52925;52.436;-1.952;2024-02-16T21:32:46;1.83;;;0.70;;
66127;SDS011;52925;52.436;-1.952;2024-02-16T21:34:10;3.07;;;0.80;;
66127;SDS011;52925;52.436;-1.952;2024-02-16T21:35:30;1.97;;;0.60;;
66127;SDS011;52925;52.436;-1.952;2024-02-16T21:36:52;2.83;;;0.93;;
66127;SDS011;52925;52.436;-1.952;2024-02-16T21:38:16;3.23;;;1.03;;
66127;SDS011;52925;52.436;-1.952;2024-02-16T21:39:39;3.10;;;0.90;;
66127;SDS011;52925;52.436;-1.952;2024-02-16T21:40:59;3.17;;;1.20;;
66127;SDS011;52925;52.436;-1.952;2024-02-16T21:42:24;4.20;;;0.97;;
66127;SDS011;52925;52.436;-1.952;2024-02-16T21:43:44;2.40;;;0.67;;
66127;SDS011;52925;52.436;-1.952;2024-02-16T21:45:09;2.50;;;0.97;;
66127;SDS011;52925;52.436;-1.952;2024-02-16T21:46:29;4.13;;;0.90;;
66127;SDS011;52925;52.436;-1.952;2024-02-16T21:47:50;3.07;;;0.90;;
66127;SDS011;52925;52.436;-1.952;2024-02-16T21:49:11;2.87;;;0.97;;
66127;SDS011;52925;52.436;-1.952;2024-02-16T21:50:34;3.90;;;0.60;;
66127;SDS011;52925;52.436;-1.952;2024-02-16T21:51:54;3.13;;;0.77;;
66127;SDS011;52925;52.436;-1.952;2024-02-16T21:53:15;3.60;;;0.73;;
66127;SDS011;52925;52.436;-1.952;2024-02-16T21:54:35;2.47;;;0.70;;
66127;SDS011;52925;52.436;-1.952;2024-02-16T21:55:57;2.20;;;0.87;;
66127;SDS011;52925;52.436;-1.952;2024-02-16T21:57:17;3.13;;;0.90;;
66127;SDS011;52925;52.436;-1.952;2024-02-16T21:58:39;2.53;;;0.90;;
66127;SDS011;52925;52.436;-1.952;2024-02-16T22:00:00;3.27;;;0.70;;
66127;SDS011;52925;52.436;-1.952;2024-02-16T22:01:23;5.10;;;1.00;;
66127;SDS011;52925;52.436;-1.952;2024-02-16T22:02:44;4.13;;;1.00;;
66127;SDS011;52925;52.436;-1.952;2024-02-16T22:04:05;2.17;;;0.77;;
66127;SDS011;52925;52.436;-1.952;2024-02-16T22:05:25;3.70;;;0.90;;
66127;SDS011;52925;52.436;-1.952;2024-02-16T22:06:46;2.80;;;0.80;;
66127;SDS011;52925;52.436;-1.952;2024-02-16T22:08:07;3.73;;;0.80;;
66127;SDS011;52925;52.436;-1.952;2024-02-16T22:09:27;3.17;;;0.97;;
66127;SDS011;52925;52.436;-1.952;2024-02-16T22:10:47;2.47;;;1.00;;
66127;SDS011;52925;52.436;-1.952;2024-02-16T22:12:08;1.90;;;0.63;;
66127;SDS011;52925;52.436;-1.952;2024-02-16T22:13:27;2.57;;;0.80;;
66127;SDS011;52925;52.436;-1.952;2024-02-16T22:14:50;5.87;;;1.10;;
66127;SDS011;52925;52.436;-1.952;2024-02-16T22:16:10;4.00;;;0.90;;
66127;SDS011;52925;52.436;-1.952;2024-02-16T22:17:31;3.40;;;0.97;;
66127;SDS011;52925;52.436;-1.952;2024-02-16T22:18:51;3.47;;;1.00;;
66127;SDS011;52925;52.436;-1.952;2024-02-16T22:20:13;3.00;;;0.73;;
66127;SDS011;52925;52.436;-1.952;2024-02-16T22:21:32;2.80;;;0.90;;
66127;SDS011;52925;52.436;-1.952;2024-02-16T22:22:54;7.03;;;1.50;;
66127;SDS011;52925;52.436;-1.952;2024-02-16T22:24:14;3.40;;;1.00;;
66127;SDS011;52925;52.436;-1.952;2024-02-16T22:25:36;3.10;;;0.90;;
66127;SDS011;52925;52.436;-1.952;2024-02-16T22:26:56;2.70;;;0.97;;
66127;SDS011;52925;52.436;-1.952;2024-02-16T22:28:17;3.63;;;1.30;;
66127;SDS011;52925;52.436;-1.952;2024-02-16T22:29:37;3.40;;;0.90;;
66127;SDS011;52925;52.436;-1.952;2024-02-16T22:31:00;3.40;;;1.03;;
66127;SDS011;52925;52.436;-1.952;2024-02-16T22:32:21;2.40;;;0.80;;
66127;SDS011;52925;52.436;-1.952;2024-02-16T22:33:42;3.53;;;1.10;;
66127;SDS011;52925;52.436;-1.952;2024-02-16T22:35:03;3.60;;;1.20;;
66127;SDS011;52925;52.436;-1.952;2024-02-16T22:36:25;2.30;;;0.83;;
66127;SDS011;52925;52.436;-1.952;2024-02-16T22:37:47;3.27;;;1.00;;
66127;SDS011;52925;52.436;-1.952;2024-02-16T22:39:08;3.37;;;1.20;;
66127;SDS011;52925;52.436;-1.952;2024-02-16T22:40:28;6.40;;;1.20;;
66127;SDS011;52925;52.436;-1.952;2024-02-16T22:41:49;4.53;;;1.27;;
66127;SDS011;52925;52.436;-1.952;2024-02-16T22:43:09;4.63;;;1.10;;
66127;SDS011;52925;52.436;-1.952;2024-02-16T22:44:30;4.37;;;1.13;;
66127;SDS011;52925;52.436;-1.952;2024-02-16T22:45:50;5.27;;;1.13;;
66127;SDS011;52925;52.436;-1.952;2024-02-16T22:47:13;1.70;;;0.90;;
66127;SDS011;52925;52.436;-1.952;2024-02-16T22:48:33;2.47;;;1.00;;
66127;SDS011;52925;52.436;-1.952;2024-02-16T22:49:53;2.93;;;0.83;;
66127;SDS011;52925;52.436;-1.952;2024-02-16T22:51:13;3.27;;;0.83;;
66127;SDS011;52925;52.436;-1.952;2024-02-16T22:52:34;3.67;;;0.90;;
66127;SDS011;52925;52.436;-1.952;2024-02-16T22:53:54;4.83;;;0.80;;
66127;SDS011;52925;52.436;-1.952;2024-02-16T22:55:15;3.63;;;1.00;;
66127;SDS011;52925;52.436;-1.952;2024-02-16T22:56:35;3.43;;;0.90;;
66127;SDS011;52925;52.436;-1.952;2024-02-16T22:57:56;2.70;;;0.87;;
66127;SDS011;52925;52.436;-1.952;2024-02-16T22:59:15;3.67;;;1.10;;
66127;SDS011;52925;52.436;-1.952;2024-02-16T23:00:37;5.17;;;1.00;;
66127;SDS011;52925;52.436;-1.952;2024-02-16T23:01:59;4.00;;;1.10;;
66127;SDS011;52925;52.436;-1.952;2024-02-16T23:03:22;3.77;;;1.07;;
66127;SDS011;52925;52.436;-1.952;2024-02-16T23:04:42;2.77;;;1.00;;
66127;SDS011;52925;52.436;-1.952;2024-02-16T23:06:03;2.87;;;0.87;;
66127;SDS011;52925;52.436;-1.952;2024-02-16T23:07:23;3.53;;;0.77;;
66127;SDS011;52925;52.436;-1.952;2024-02-16T23:08:44;5.63;;;1.00;;
66127;SDS011;52925;52.436;-1.952;2024-02-16T23:10:04;2.77;;;0.90;;
66127;SDS011;52925;52.436;-1.952;2024-02-16T23:11:28;2.20;;;0.80;;
66127;SDS011;52925;52.436;-1.952;2024-02-16T23:12:48;3.63;;;1.00;;
66127;SDS011;52925;52.436;-1.952;2024-02-16T23:14:09;2.77;;;1.00;;
